OISL

Lar Airport

Lar, Iran
TAF OISL 240530Z 2406/2512 26004MPS 7000 NSC TEMPO 2418/2503 28007MPS
Issued Valid From Valid To
Sep-24 @ 05:30 UTC
(8 hours ago)
Sep-24 @ 06:00 UTC
(8 hours ago)
Sep-25 @ 12:00 UTC
(in 22 hours)
Sep-24 @ 06:00 to Sep-25 @ 12:00
TAF OISL 240530Z 2406/2512 26004MPS 7000 NSC
Wind Visibility Clouds
260° at 8 knots 7,001 meters
  • No significant clouds
Temporary Sep-24 @ 18:00 to Sep-25 @ 03:00
TEMPO 2418/2503 28007MPS
Wind
280° at 14 knots
TAF OISL 240530Z 2406/2512 26004MPS 7000 NSC TEMPO 2418/2503 28007MPS
Issued Sep-24 @ 05:30 UTC
(8 hours ago)
Valid From Sep-24 @ 06:00 UTC
(8 hours ago)
Valid To Sep-25 @ 12:00 UTC
(in 22 hours)
Sep-24 @ 06:00 - Sep-25 @ 12:00
Wind Visibility
260° at 8 knots 7,001 meters
Clouds
  • No significant clouds
Temporary Sep-24 @ 18:00 - Sep-25 @ 03:00
Wind
280° at 14 knots